sensor_id;sensor_type;location;lat;lon;timestamp;P1;durP1;ratioP1;P2;durP2;ratioP2
4957;SDS011;2494;51.872;9.688;2023-07-31T00:00:40;1.50;;;1.30;;
4957;SDS011;2494;51.872;9.688;2023-07-31T00:03:27;2.30;;;1.33;;
4957;SDS011;2494;51.872;9.688;2023-07-31T00:06:12;2.40;;;1.57;;
4957;SDS011;2494;51.872;9.688;2023-07-31T00:08:57;1.80;;;1.40;;
4957;SDS011;2494;51.872;9.688;2023-07-31T00:11:42;2.07;;;1.40;;
4957;SDS011;2494;51.872;9.688;2023-07-31T00:14:27;2.00;;;1.43;;
4957;SDS011;2494;51.872;9.688;2023-07-31T00:17:11;1.90;;;1.30;;
4957;SDS011;2494;51.872;9.688;2023-07-31T00:19:58;2.20;;;1.33;;
4957;SDS011;2494;51.872;9.688;2023-07-31T00:22:43;1.67;;;1.30;;
4957;SDS011;2494;51.872;9.688;2023-07-31T00:25:28;1.50;;;1.30;;
4957;SDS011;2494;51.872;9.688;2023-07-31T00:28:13;1.73;;;1.30;;
4957;SDS011;2494;51.872;9.688;2023-07-31T00:30:58;2.00;;;1.20;;
4957;SDS011;2494;51.872;9.688;2023-07-31T00:33:43;1.20;;;1.10;;
4957;SDS011;2494;51.872;9.688;2023-07-31T00:36:30;2.83;;;1.30;;
4957;SDS011;2494;51.872;9.688;2023-07-31T00:39:14;1.50;;;1.40;;
4957;SDS011;2494;51.872;9.688;2023-07-31T00:41:59;2.00;;;1.40;;
4957;SDS011;2494;51.872;9.688;2023-07-31T00:44:44;1.53;;;1.20;;
4957;SDS011;2494;51.872;9.688;2023-07-31T00:47:29;1.93;;;1.23;;
4957;SDS011;2494;51.872;9.688;2023-07-31T00:50:14;1.93;;;1.57;;
4957;SDS011;2494;51.872;9.688;2023-07-31T00:53:00;2.03;;;1.50;;
4957;SDS011;2494;51.872;9.688;2023-07-31T00:55:45;1.60;;;1.20;;
4957;SDS011;2494;51.872;9.688;2023-07-31T00:58:31;1.40;;;1.20;;
4957;SDS011;2494;51.872;9.688;2023-07-31T01:01:16;1.20;;;1.00;;
4957;SDS011;2494;51.872;9.688;2023-07-31T01:04:01;1.97;;;1.30;;
4957;SDS011;2494;51.872;9.688;2023-07-31T01:06:48;1.13;;;1.03;;
4957;SDS011;2494;51.872;9.688;2023-07-31T01:09:40;1.27;;;1.00;;
4957;SDS011;2494;51.872;9.688;2023-07-31T01:12:25;1.10;;;1.00;;
4957;SDS011;2494;51.872;9.688;2023-07-31T01:15:13;1.33;;;1.07;;
4957;SDS011;2494;51.872;9.688;2023-07-31T01:17:58;1.30;;;1.20;;
4957;SDS011;2494;51.872;9.688;2023-07-31T01:20:43;1.10;;;1.00;;
4957;SDS011;2494;51.872;9.688;2023-07-31T01:26:36;1.10;;;1.00;;
4957;SDS011;2494;51.872;9.688;2023-07-31T01:29:24;1.10;;;1.00;;
4957;SDS011;2494;51.872;9.688;2023-07-31T01:32:11;1.10;;;1.00;;
4957;SDS011;2494;51.872;9.688;2023-07-31T01:34:57;1.00;;;0.83;;
4957;SDS011;2494;51.872;9.688;2023-07-31T01:37:43;1.60;;;1.10;;
4957;SDS011;2494;51.872;9.688;2023-07-31T01:40:28;1.17;;;1.07;;
4957;SDS011;2494;51.872;9.688;2023-07-31T01:43:14;2.13;;;1.10;;
4957;SDS011;2494;51.872;9.688;2023-07-31T01:45:59;1.10;;;1.00;;
4957;SDS011;2494;51.872;9.688;2023-07-31T01:48:44;2.20;;;1.63;;
4957;SDS011;2494;51.872;9.688;2023-07-31T01:51:28;1.47;;;1.37;;
4957;SDS011;2494;51.872;9.688;2023-07-31T01:54:17;1.43;;;1.33;;
4957;SDS011;2494;51.872;9.688;2023-07-31T01:57:02;1.40;;;1.30;;
4957;SDS011;2494;51.872;9.688;2023-07-31T01:59:49;1.40;;;1.30;;
4957;SDS011;2494;51.872;9.688;2023-07-31T02:02:34;1.80;;;1.50;;
4957;SDS011;2494;51.872;9.688;2023-07-31T02:05:19;1.40;;;1.30;;
4957;SDS011;2494;51.872;9.688;2023-07-31T02:08:04;1.67;;;1.40;;
4957;SDS011;2494;51.872;9.688;2023-07-31T02:10:49;4.03;;;1.43;;
4957;SDS011;2494;51.872;9.688;2023-07-31T02:13:34;1.40;;;1.30;;
4957;SDS011;2494;51.872;9.688;2023-07-31T02:16:20;2.23;;;1.50;;
4957;SDS011;2494;51.872;9.688;2023-07-31T02:19:05;1.37;;;1.20;;
4957;SDS011;2494;51.872;9.688;2023-07-31T02:21:50;2.80;;;1.60;;
4957;SDS011;2494;51.872;9.688;2023-07-31T02:24:35;2.23;;;1.60;;
4957;SDS011;2494;51.872;9.688;2023-07-31T02:27:20;2.23;;;1.97;;
4957;SDS011;2494;51.872;9.688;2023-07-31T02:30:08;1.97;;;1.87;;
4957;SDS011;2494;51.872;9.688;2023-07-31T02:32:54;1.50;;;1.40;;
4957;SDS011;2494;51.872;9.688;2023-07-31T02:35:39;1.60;;;1.50;;
4957;SDS011;2494;51.872;9.688;2023-07-31T02:38:24;1.50;;;1.40;;
4957;SDS011;2494;51.872;9.688;2023-07-31T02:41:10;1.53;;;1.43;;
4957;SDS011;2494;51.872;9.688;2023-07-31T02:43:55;2.37;;;1.30;;
4957;SDS011;2494;51.872;9.688;2023-07-31T02:46:40;2.40;;;1.50;;
4957;SDS011;2494;51.872;9.688;2023-07-31T02:49:26;2.80;;;1.37;;
4957;SDS011;2494;51.872;9.688;2023-07-31T02:52:11;2.53;;;1.40;;
4957;SDS011;2494;51.872;9.688;2023-07-31T02:54:56;2.13;;;1.40;;
4957;SDS011;2494;51.872;9.688;2023-07-31T02:57:41;1.67;;;1.23;;
4957;SDS011;2494;51.872;9.688;2023-07-31T03:00:26;1.10;;;1.00;;
4957;SDS011;2494;51.872;9.688;2023-07-31T03:03:11;1.00;;;0.90;;
4957;SDS011;2494;51.872;9.688;2023-07-31T03:05:57;2.03;;;1.00;;
4957;SDS011;2494;51.872;9.688;2023-07-31T03:08:42;1.30;;;0.80;;
4957;SDS011;2494;51.872;9.688;2023-07-31T03:11:27;1.00;;;0.70;;
4957;SDS011;2494;51.872;9.688;2023-07-31T03:14:12;0.90;;;0.80;;
4957;SDS011;2494;51.872;9.688;2023-07-31T03:16:59;1.77;;;0.90;;
4957;SDS011;2494;51.872;9.688;2023-07-31T03:19:44;1.10;;;0.90;;
4957;SDS011;2494;51.872;9.688;2023-07-31T03:22:30;3.10;;;0.80;;
4957;SDS011;2494;51.872;9.688;2023-07-31T03:25:15;2.70;;;0.80;;
4957;SDS011;2494;51.872;9.688;2023-07-31T03:28:00;3.10;;;0.80;;
4957;SDS011;2494;51.872;9.688;2023-07-31T03:30:45;2.10;;;0.77;;
4957;SDS011;2494;51.872;9.688;2023-07-31T03:33:30;0.80;;;0.80;;
4957;SDS011;2494;51.872;9.688;2023-07-31T03:36:15;1.43;;;1.20;;
4957;SDS011;2494;51.872;9.688;2023-07-31T03:39:01;0.80;;;0.80;;
4957;SDS011;2494;51.872;9.688;2023-07-31T03:41:47;1.17;;;0.70;;
4957;SDS011;2494;51.872;9.688;2023-07-31T03:44:32;1.33;;;0.90;;
4957;SDS011;2494;51.872;9.688;2023-07-31T03:47:16;2.83;;;0.70;;
4957;SDS011;2494;51.872;9.688;2023-07-31T03:50:02;1.80;;;0.90;;
4957;SDS011;2494;51.872;9.688;2023-07-31T03:52:47;2.13;;;0.80;;
4957;SDS011;2494;51.872;9.688;2023-07-31T03:55:33;0.90;;;0.80;;
4957;SDS011;2494;51.872;9.688;2023-07-31T03:58:18;0.80;;;0.73;;
4957;SDS011;2494;51.872;9.688;2023-07-31T04:01:03;1.00;;;0.73;;
4957;SDS011;2494;51.872;9.688;2023-07-31T04:03:48;2.90;;;1.00;;
4957;SDS011;2494;51.872;9.688;2023-07-31T04:06:32;2.43;;;1.13;;
4957;SDS011;2494;51.872;9.688;2023-07-31T04:09:17;2.07;;;1.73;;
4957;SDS011;2494;51.872;9.688;2023-07-31T04:12:05;4.00;;;2.27;;
4957;SDS011;2494;51.872;9.688;2023-07-31T04:14:50;3.23;;;2.93;;
4957;SDS011;2494;51.872;9.688;2023-07-31T04:17:34;4.00;;;3.10;;
4957;SDS011;2494;51.872;9.688;2023-07-31T04:20:19;9.33;;;4.70;;
4957;SDS011;2494;51.872;9.688;2023-07-31T04:23:04;4.27;;;3.70;;
4957;SDS011;2494;51.872;9.688;2023-07-31T04:25:49;10.10;;;4.73;;
4957;SDS011;2494;51.872;9.688;2023-07-31T04:28:36;6.20;;;5.60;;
4957;SDS011;2494;51.872;9.688;2023-07-31T04:31:20;9.87;;;4.70;;
4957;SDS011;2494;51.872;9.688;2023-07-31T04:34:05;12.90;;;5.27;;
4957;SDS011;2494;51.872;9.688;2023-07-31T04:36:50;7.10;;;4.67;;
4957;SDS011;2494;51.872;9.688;2023-07-31T04:39:35;5.77;;;4.57;;
4957;SDS011;2494;51.872;9.688;2023-07-31T04:42:20;7.97;;;4.97;;
4957;SDS011;2494;51.872;9.688;2023-07-31T04:45:07;9.10;;;5.43;;
4957;SDS011;2494;51.872;9.688;2023-07-31T04:47:52;10.70;;;4.90;;
4957;SDS011;2494;51.872;9.688;2023-07-31T04:50:37;6.93;;;4.80;;
4957;SDS011;2494;51.872;9.688;2023-07-31T04:53:22;8.00;;;5.50;;
4957;SDS011;2494;51.872;9.688;2023-07-31T04:56:08;11.00;;;5.00;;
4957;SDS011;2494;51.872;9.688;2023-07-31T04:58:53;8.60;;;5.87;;
4957;SDS011;2494;51.872;9.688;2023-07-31T05:01:40;8.20;;;5.60;;
4957;SDS011;2494;51.872;9.688;2023-07-31T05:04:25;11.17;;;5.77;;
4957;SDS011;2494;51.872;9.688;2023-07-31T05:07:10;7.57;;;6.10;;
4957;SDS011;2494;51.872;9.688;2023-07-31T05:09:55;7.93;;;4.97;;
4957;SDS011;2494;51.872;9.688;2023-07-31T05:12:40;6.60;;;4.47;;
4957;SDS011;2494;51.872;9.688;2023-07-31T05:15:25;9.03;;;5.50;;
4957;SDS011;2494;51.872;9.688;2023-07-31T05:18:11;10.00;;;5.30;;
4957;SDS011;2494;51.872;9.688;2023-07-31T05:20:56;8.20;;;5.97;;
4957;SDS011;2494;51.872;9.688;2023-07-31T05:23:41;9.13;;;5.47;;
4957;SDS011;2494;51.872;9.688;2023-07-31T05:26:26;12.30;;;5.70;;
4957;SDS011;2494;51.872;9.688;2023-07-31T05:29:11;5.27;;;4.53;;
4957;SDS011;2494;51.872;9.688;2023-07-31T05:31:56;8.33;;;4.70;;
4957;SDS011;2494;51.872;9.688;2023-07-31T05:34:42;6.20;;;4.27;;
4957;SDS011;2494;51.872;9.688;2023-07-31T05:37:28;5.97;;;5.03;;
4957;SDS011;2494;51.872;9.688;2023-07-31T05:40:13;5.20;;;3.93;;
4957;SDS011;2494;51.872;9.688;2023-07-31T05:42:58;9.03;;;5.03;;
4957;SDS011;2494;51.872;9.688;2023-07-31T05:45:43;6.37;;;5.40;;
4957;SDS011;2494;51.872;9.688;2023-07-31T05:48:28;15.83;;;6.93;;
4957;SDS011;2494;51.872;9.688;2023-07-31T05:51:15;10.20;;;7.70;;
4957;SDS011;2494;51.872;9.688;2023-07-31T05:54:00;12.03;;;6.67;;
4957;SDS011;2494;51.872;9.688;2023-07-31T05:56:45;11.03;;;6.60;;
4957;SDS011;2494;51.872;9.688;2023-07-31T05:59:30;9.43;;;6.03;;
4957;SDS011;2494;51.872;9.688;2023-07-31T06:02:17;6.70;;;5.80;;
4957;SDS011;2494;51.872;9.688;2023-07-31T06:05:02;9.00;;;5.60;;
4957;SDS011;2494;51.872;9.688;2023-07-31T06:07:49;5.60;;;5.10;;
4957;SDS011;2494;51.872;9.688;2023-07-31T06:10:34;7.90;;;6.40;;
4957;SDS011;2494;51.872;9.688;2023-07-31T06:13:19;7.90;;;5.33;;
4957;SDS011;2494;51.872;9.688;2023-07-31T06:16:04;8.90;;;5.73;;
4957;SDS011;2494;51.872;9.688;2023-07-31T06:18:50;7.17;;;5.57;;
4957;SDS011;2494;51.872;9.688;2023-07-31T06:21:35;12.33;;;5.60;;
4957;SDS011;2494;51.872;9.688;2023-07-31T06:24:22;7.30;;;5.73;;
4957;SDS011;2494;51.872;9.688;2023-07-31T06:27:07;8.77;;;5.10;;
4957;SDS011;2494;51.872;9.688;2023-07-31T06:29:52;11.10;;;5.57;;
4957;SDS011;2494;51.872;9.688;2023-07-31T06:32:37;6.60;;;4.67;;
4957;SDS011;2494;51.872;9.688;2023-07-31T06:35:24;10.13;;;4.97;;
4957;SDS011;2494;51.872;9.688;2023-07-31T06:38:08;5.43;;;3.70;;
4957;SDS011;2494;51.872;9.688;2023-07-31T06:40:55;7.00;;;4.27;;
4957;SDS011;2494;51.872;9.688;2023-07-31T06:43:41;6.17;;;5.57;;
4957;SDS011;2494;51.872;9.688;2023-07-31T06:46:26;7.30;;;5.53;;
4957;SDS011;2494;51.872;9.688;2023-07-31T06:49:11;8.97;;;5.03;;
4957;SDS011;2494;51.872;9.688;2023-07-31T06:51:58;7.60;;;5.23;;
4957;SDS011;2494;51.872;9.688;2023-07-31T06:54:43;8.23;;;4.97;;
4957;SDS011;2494;51.872;9.688;2023-07-31T06:57:30;8.40;;;5.03;;
4957;SDS011;2494;51.872;9.688;2023-07-31T07:00:15;5.80;;;5.20;;
4957;SDS011;2494;51.872;9.688;2023-07-31T07:03:00;6.30;;;5.07;;
4957;SDS011;2494;51.872;9.688;2023-07-31T07:05:46;7.80;;;5.30;;
4957;SDS011;2494;51.872;9.688;2023-07-31T07:08:31;8.37;;;4.33;;
4957;SDS011;2494;51.872;9.688;2023-07-31T07:11:17;5.93;;;5.20;;
4957;SDS011;2494;51.872;9.688;2023-07-31T07:14:04;5.83;;;4.00;;
4957;SDS011;2494;51.872;9.688;2023-07-31T07:16:50;4.87;;;4.47;;
4957;SDS011;2494;51.872;9.688;2023-07-31T07:19:36;6.27;;;4.50;;
4957;SDS011;2494;51.872;9.688;2023-07-31T07:22:21;7.63;;;3.97;;
4957;SDS011;2494;51.872;9.688;2023-07-31T07:25:06;7.50;;;4.77;;
4957;SDS011;2494;51.872;9.688;2023-07-31T07:27:52;9.33;;;4.23;;
4957;SDS011;2494;51.872;9.688;2023-07-31T07:30:38;12.80;;;4.00;;
4957;SDS011;2494;51.872;9.688;2023-07-31T07:33:24;6.43;;;4.47;;
4957;SDS011;2494;51.872;9.688;2023-07-31T07:36:09;5.77;;;3.40;;
4957;SDS011;2494;51.872;9.688;2023-07-31T07:38:56;7.00;;;3.50;;
4957;SDS011;2494;51.872;9.688;2023-07-31T07:41:42;6.00;;;3.77;;
4957;SDS011;2494;51.872;9.688;2023-07-31T07:44:27;4.13;;;3.50;;
4957;SDS011;2494;51.872;9.688;2023-07-31T07:47:14;6.10;;;3.70;;
4957;SDS011;2494;51.872;9.688;2023-07-31T07:49:59;4.50;;;3.97;;
4957;SDS011;2494;51.872;9.688;2023-07-31T07:52:44;6.27;;;4.33;;
4957;SDS011;2494;51.872;9.688;2023-07-31T07:55:29;4.30;;;3.90;;
4957;SDS011;2494;51.872;9.688;2023-07-31T07:58:14;4.57;;;3.50;;
4957;SDS011;2494;51.872;9.688;2023-07-31T08:00:59;9.47;;;4.60;;
4957;SDS011;2494;51.872;9.688;2023-07-31T08:03:46;4.37;;;4.00;;
4957;SDS011;2494;51.872;9.688;2023-07-31T08:06:31;10.33;;;3.80;;
4957;SDS011;2494;51.872;9.688;2023-07-31T08:09:16;4.63;;;3.97;;
4957;SDS011;2494;51.872;9.688;2023-07-31T08:12:01;4.40;;;4.00;;
4957;SDS011;2494;51.872;9.688;2023-07-31T08:14:46;5.67;;;4.50;;
4957;SDS011;2494;51.872;9.688;2023-07-31T08:17:32;9.73;;;4.43;;
4957;SDS011;2494;51.872;9.688;2023-07-31T08:20:18;4.83;;;3.33;;
4957;SDS011;2494;51.872;9.688;2023-07-31T08:23:04;6.00;;;4.10;;
4957;SDS011;2494;51.872;9.688;2023-07-31T08:25:49;5.53;;;3.77;;
4957;SDS011;2494;51.872;9.688;2023-07-31T08:28:34;4.60;;;3.43;;
4957;SDS011;2494;51.872;9.688;2023-07-31T08:31:20;4.23;;;3.80;;
4957;SDS011;2494;51.872;9.688;2023-07-31T08:34:05;4.00;;;3.33;;
4957;SDS011;2494;51.872;9.688;2023-07-31T08:36:51;4.23;;;3.83;;
4957;SDS011;2494;51.872;9.688;2023-07-31T08:39:37;9.10;;;3.80;;
4957;SDS011;2494;51.872;9.688;2023-07-31T08:42:23;4.23;;;3.80;;
4957;SDS011;2494;51.872;9.688;2023-07-31T08:45:09;3.43;;;3.10;;
4957;SDS011;2494;51.872;9.688;2023-07-31T08:47:56;5.00;;;2.93;;
4957;SDS011;2494;51.872;9.688;2023-07-31T08:50:41;2.87;;;2.57;;
4957;SDS011;2494;51.872;9.688;2023-07-31T08:53:28;3.63;;;3.17;;
4957;SDS011;2494;51.872;9.688;2023-07-31T08:56:14;2.73;;;2.50;;
4957;SDS011;2494;51.872;9.688;2023-07-31T08:59:02;3.93;;;2.97;;
4957;SDS011;2494;51.872;9.688;2023-07-31T09:01:49;2.57;;;2.37;;
4957;SDS011;2494;51.872;9.688;2023-07-31T09:04:34;4.07;;;2.63;;
4957;SDS011;2494;51.872;9.688;2023-07-31T09:07:20;3.00;;;2.80;;
4957;SDS011;2494;51.872;9.688;2023-07-31T09:10:08;2.87;;;2.60;;
4957;SDS011;2494;51.872;9.688;2023-07-31T09:12:53;3.73;;;3.00;;
4957;SDS011;2494;51.872;9.688;2023-07-31T09:15:38;4.77;;;2.57;;
4957;SDS011;2494;51.872;9.688;2023-07-31T09:18:24;3.23;;;3.03;;
4957;SDS011;2494;51.872;9.688;2023-07-31T09:21:09;3.20;;;3.00;;
4957;SDS011;2494;51.872;9.688;2023-07-31T09:23:54;3.13;;;2.50;;
4957;SDS011;2494;51.872;9.688;2023-07-31T09:26:40;3.63;;;3.03;;
4957;SDS011;2494;51.872;9.688;2023-07-31T09:29:26;2.97;;;2.77;;
4957;SDS011;2494;51.872;9.688;2023-07-31T09:32:15;2.70;;;2.50;;
4957;SDS011;2494;51.872;9.688;2023-07-31T09:35:00;3.33;;;2.47;;
4957;SDS011;2494;51.872;9.688;2023-07-31T09:37:49;5.50;;;2.80;;
4957;SDS011;2494;51.872;9.688;2023-07-31T09:40:35;3.50;;;2.93;;
4957;SDS011;2494;51.872;9.688;2023-07-31T09:43:22;3.53;;;3.00;;
4957;SDS011;2494;51.872;9.688;2023-07-31T09:46:12;2.60;;;2.40;;
4957;SDS011;2494;51.872;9.688;2023-07-31T09:49:04;2.70;;;2.50;;
4957;SDS011;2494;51.872;9.688;2023-07-31T09:51:50;3.10;;;2.80;;
4957;SDS011;2494;51.872;9.688;2023-07-31T09:54:35;2.80;;;2.60;;
4957;SDS011;2494;51.872;9.688;2023-07-31T09:57:21;2.77;;;2.57;;
4957;SDS011;2494;51.872;9.688;2023-07-31T10:00:09;3.57;;;3.17;;
4957;SDS011;2494;51.872;9.688;2023-07-31T10:02:54;4.50;;;3.10;;
4957;SDS011;2494;51.872;9.688;2023-07-31T10:05:44;3.13;;;2.40;;
4957;SDS011;2494;51.872;9.688;2023-07-31T10:08:32;3.90;;;3.60;;
4957;SDS011;2494;51.872;9.688;2023-07-31T10:11:18;3.33;;;3.13;;
4957;SDS011;2494;51.872;9.688;2023-07-31T10:14:04;2.97;;;2.67;;
4957;SDS011;2494;51.872;9.688;2023-07-31T10:16:51;3.10;;;2.80;;
4957;SDS011;2494;51.872;9.688;2023-07-31T10:19:38;3.83;;;2.83;;
4957;SDS011;2494;51.872;9.688;2023-07-31T10:22:24;3.30;;;2.77;;
4957;SDS011;2494;51.872;9.688;2023-07-31T10:25:10;4.80;;;3.30;;
4957;SDS011;2494;51.872;9.688;2023-07-31T10:27:55;2.67;;;2.47;;
4957;SDS011;2494;51.872;9.688;2023-07-31T10:30:40;5.60;;;2.70;;
4957;SDS011;2494;51.872;9.688;2023-07-31T10:33:27;3.53;;;2.70;;
4957;SDS011;2494;51.872;9.688;2023-07-31T10:36:12;3.00;;;2.70;;
4957;SDS011;2494;51.872;9.688;2023-07-31T10:38:58;2.87;;;2.67;;
4957;SDS011;2494;51.872;9.688;2023-07-31T10:41:43;3.70;;;2.50;;
4957;SDS011;2494;51.872;9.688;2023-07-31T10:44:28;2.67;;;2.47;;
4957;SDS011;2494;51.872;9.688;2023-07-31T10:47:14;4.87;;;2.63;;
4957;SDS011;2494;51.872;9.688;2023-07-31T10:53:14;3.20;;;2.90;;
4957;SDS011;2494;51.872;9.688;2023-07-31T10:56:07;3.20;;;2.50;;
4957;SDS011;2494;51.872;9.688;2023-07-31T10:59:00;2.30;;;2.10;;
4957;SDS011;2494;51.872;9.688;2023-07-31T11:01:52;2.67;;;2.10;;
4957;SDS011;2494;51.872;9.688;2023-07-31T11:04:37;2.90;;;2.60;;
4957;SDS011;2494;51.872;9.688;2023-07-31T11:07:23;3.03;;;2.70;;
4957;SDS011;2494;51.872;9.688;2023-07-31T11:10:09;4.03;;;2.00;;
4957;SDS011;2494;51.872;9.688;2023-07-31T11:12:54;2.03;;;1.83;;
4957;SDS011;2494;51.872;9.688;2023-07-31T11:15:39;3.13;;;2.13;;
4957;SDS011;2494;51.872;9.688;2023-07-31T11:18:24;2.13;;;2.03;;
4957;SDS011;2494;51.872;9.688;2023-07-31T11:21:11;2.90;;;2.70;;
4957;SDS011;2494;51.872;9.688;2023-07-31T11:23:57;2.60;;;2.40;;
4957;SDS011;2494;51.872;9.688;2023-07-31T11:26:49;2.80;;;2.47;;
4957;SDS011;2494;51.872;9.688;2023-07-31T11:29:34;2.70;;;2.17;;
4957;SDS011;2494;51.872;9.688;2023-07-31T11:32:19;2.80;;;2.10;;
4957;SDS011;2494;51.872;9.688;2023-07-31T11:35:04;2.60;;;2.40;;
4957;SDS011;2494;51.872;9.688;2023-07-31T11:37:51;2.83;;;2.10;;
4957;SDS011;2494;51.872;9.688;2023-07-31T11:40:40;2.47;;;2.10;;
4957;SDS011;2494;51.872;9.688;2023-07-31T11:43:27;2.30;;;2.10;;
4957;SDS011;2494;51.872;9.688;2023-07-31T11:46:12;2.40;;;2.20;;
4957;SDS011;2494;51.872;9.688;2023-07-31T11:48:58;7.10;;;2.50;;
4957;SDS011;2494;51.872;9.688;2023-07-31T11:51:44;4.80;;;2.70;;
4957;SDS011;2494;51.872;9.688;2023-07-31T11:54:29;4.43;;;2.13;;
4957;SDS011;2494;51.872;9.688;2023-07-31T11:57:14;2.37;;;2.13;;
4957;SDS011;2494;51.872;9.688;2023-07-31T12:00:01;2.23;;;2.13;;
4957;SDS011;2494;51.872;9.688;2023-07-31T12:02:47;3.73;;;2.20;;
4957;SDS011;2494;51.872;9.688;2023-07-31T12:05:32;2.13;;;2.03;;
4957;SDS011;2494;51.872;9.688;2023-07-31T12:08:20;2.17;;;1.97;;
4957;SDS011;2494;51.872;9.688;2023-07-31T12:11:07;2.23;;;2.07;;
4957;SDS011;2494;51.872;9.688;2023-07-31T12:13:53;2.97;;;1.70;;
4957;SDS011;2494;51.872;9.688;2023-07-31T12:16:39;1.80;;;1.70;;
4957;SDS011;2494;51.872;9.688;2023-07-31T12:19:24;1.93;;;1.83;;
4957;SDS011;2494;51.872;9.688;2023-07-31T12:22:11;3.20;;;1.80;;
4957;SDS011;2494;51.872;9.688;2023-07-31T12:24:57;2.10;;;1.80;;
4957;SDS011;2494;51.872;9.688;2023-07-31T12:27:44;1.50;;;1.40;;
4957;SDS011;2494;51.872;9.688;2023-07-31T12:30:29;1.77;;;1.67;;
4957;SDS011;2494;51.872;9.688;2023-07-31T12:33:18;1.30;;;1.20;;
4957;SDS011;2494;51.872;9.688;2023-07-31T12:36:04;1.83;;;1.20;;
4957;SDS011;2494;51.872;9.688;2023-07-31T12:38:51;3.93;;;1.50;;
4957;SDS011;2494;51.872;9.688;2023-07-31T12:41:37;1.20;;;1.10;;
4957;SDS011;2494;51.872;9.688;2023-07-31T12:44:22;1.30;;;1.20;;
4957;SDS011;2494;51.872;9.688;2023-07-31T12:47:07;1.80;;;1.00;;
4957;SDS011;2494;51.872;9.688;2023-07-31T12:49:53;5.50;;;1.37;;
4957;SDS011;2494;51.872;9.688;2023-07-31T12:52:39;2.23;;;1.17;;
4957;SDS011;2494;51.872;9.688;2023-07-31T12:55:24;1.77;;;1.10;;
4957;SDS011;2494;51.872;9.688;2023-07-31T12:58:09;1.13;;;1.00;;
4957;SDS011;2494;51.872;9.688;2023-07-31T13:00:54;1.67;;;1.00;;
4957;SDS011;2494;51.872;9.688;2023-07-31T13:03:39;2.70;;;1.00;;
4957;SDS011;2494;51.872;9.688;2023-07-31T13:06:26;0.90;;;0.90;;
4957;SDS011;2494;51.872;9.688;2023-07-31T13:09:11;1.13;;;1.03;;
4957;SDS011;2494;51.872;9.688;2023-07-31T13:11:57;1.20;;;1.10;;
4957;SDS011;2494;51.872;9.688;2023-07-31T13:14:42;1.20;;;0.90;;
4957;SDS011;2494;51.872;9.688;2023-07-31T13:17:28;1.00;;;0.70;;
4957;SDS011;2494;51.872;9.688;2023-07-31T13:20:12;1.50;;;1.07;;
4957;SDS011;2494;51.872;9.688;2023-07-31T13:22:59;0.80;;;0.80;;
4957;SDS011;2494;51.872;9.688;2023-07-31T13:25:44;0.80;;;0.70;;
4957;SDS011;2494;51.872;9.688;2023-07-31T13:28:29;1.00;;;0.90;;
4957;SDS011;2494;51.872;9.688;2023-07-31T13:31:14;0.80;;;0.80;;
4957;SDS011;2494;51.872;9.688;2023-07-31T13:33:59;0.83;;;0.73;;
4957;SDS011;2494;51.872;9.688;2023-07-31T13:36:44;1.10;;;0.90;;
4957;SDS011;2494;51.872;9.688;2023-07-31T13:39:31;1.10;;;0.80;;
4957;SDS011;2494;51.872;9.688;2023-07-31T13:42:16;1.27;;;1.17;;
4957;SDS011;2494;51.872;9.688;2023-07-31T13:45:02;1.77;;;1.00;;
4957;SDS011;2494;51.872;9.688;2023-07-31T13:47:47;2.43;;;1.10;;
4957;SDS011;2494;51.872;9.688;2023-07-31T13:50:32;0.90;;;0.90;;
4957;SDS011;2494;51.872;9.688;2023-07-31T13:53:18;1.40;;;1.00;;
4957;SDS011;2494;51.872;9.688;2023-07-31T13:56:04;2.17;;;1.10;;
4957;SDS011;2494;51.872;9.688;2023-07-31T13:58:50;1.67;;;1.20;;
4957;SDS011;2494;51.872;9.688;2023-07-31T14:01:35;1.57;;;1.00;;
4957;SDS011;2494;51.872;9.688;2023-07-31T14:04:20;1.57;;;1.10;;
4957;SDS011;2494;51.872;9.688;2023-07-31T14:07:05;1.33;;;1.23;;
4957;SDS011;2494;51.872;9.688;2023-07-31T14:09:50;2.30;;;1.43;;
4957;SDS011;2494;51.872;9.688;2023-07-31T14:12:36;1.50;;;1.40;;
4957;SDS011;2494;51.872;9.688;2023-07-31T14:15:22;2.27;;;1.63;;
4957;SDS011;2494;51.872;9.688;2023-07-31T14:18:07;1.20;;;1.10;;
4957;SDS011;2494;51.872;9.688;2023-07-31T14:20:52;1.50;;;1.40;;
4957;SDS011;2494;51.872;9.688;2023-07-31T14:23:37;1.53;;;1.30;;
4957;SDS011;2494;51.872;9.688;2023-07-31T14:26:22;6.00;;;1.60;;
4957;SDS011;2494;51.872;9.688;2023-07-31T14:29:08;1.47;;;1.37;;
4957;SDS011;2494;51.872;9.688;2023-07-31T14:31:53;1.67;;;1.40;;
4957;SDS011;2494;51.872;9.688;2023-07-31T14:34:38;2.73;;;1.57;;
4957;SDS011;2494;51.872;9.688;2023-07-31T14:37:25;1.83;;;1.50;;
4957;SDS011;2494;51.872;9.688;2023-07-31T14:40:11;2.20;;;1.90;;
4957;SDS011;2494;51.872;9.688;2023-07-31T14:42:56;1.43;;;1.33;;
4957;SDS011;2494;51.872;9.688;2023-07-31T14:45:42;1.50;;;1.40;;
4957;SDS011;2494;51.872;9.688;2023-07-31T14:48:30;1.70;;;1.60;;
4957;SDS011;2494;51.872;9.688;2023-07-31T14:51:15;1.37;;;1.27;;
4957;SDS011;2494;51.872;9.688;2023-07-31T14:54:01;1.40;;;1.30;;
4957;SDS011;2494;51.872;9.688;2023-07-31T14:56:47;1.47;;;1.37;;
4957;SDS011;2494;51.872;9.688;2023-07-31T14:59:32;1.40;;;1.30;;
4957;SDS011;2494;51.872;9.688;2023-07-31T15:02:18;1.87;;;1.63;;
4957;SDS011;2494;51.872;9.688;2023-07-31T15:05:04;1.23;;;1.13;;
4957;SDS011;2494;51.872;9.688;2023-07-31T15:07:50;1.40;;;1.30;;
4957;SDS011;2494;51.872;9.688;2023-07-31T15:10:35;1.93;;;1.10;;
4957;SDS011;2494;51.872;9.688;2023-07-31T15:13:20;1.40;;;1.30;;
4957;SDS011;2494;51.872;9.688;2023-07-31T15:16:05;1.73;;;1.30;;
4957;SDS011;2494;51.872;9.688;2023-07-31T15:18:51;1.53;;;1.30;;
4957;SDS011;2494;51.872;9.688;2023-07-31T15:21:37;1.40;;;1.30;;
4957;SDS011;2494;51.872;9.688;2023-07-31T15:24:22;1.97;;;1.47;;
4957;SDS011;2494;51.872;9.688;2023-07-31T15:27:07;1.20;;;1.10;;
4957;SDS011;2494;51.872;9.688;2023-07-31T15:29:52;1.20;;;1.10;;
4957;SDS011;2494;51.872;9.688;2023-07-31T15:32:38;1.07;;;0.97;;
4957;SDS011;2494;51.872;9.688;2023-07-31T15:35:24;1.33;;;1.23;;
4957;SDS011;2494;51.872;9.688;2023-07-31T15:38:09;1.33;;;1.00;;
4957;SDS011;2494;51.872;9.688;2023-07-31T15:40:55;3.03;;;1.30;;
4957;SDS011;2494;51.872;9.688;2023-07-31T15:43:40;1.40;;;1.17;;
4957;SDS011;2494;51.872;9.688;2023-07-31T15:46:25;1.23;;;1.03;;
4957;SDS011;2494;51.872;9.688;2023-07-31T15:49:10;1.77;;;1.40;;
4957;SDS011;2494;51.872;9.688;2023-07-31T15:51:56;1.30;;;1.20;;
4957;SDS011;2494;51.872;9.688;2023-07-31T15:54:41;1.87;;;1.30;;
4957;SDS011;2494;51.872;9.688;2023-07-31T15:57:27;2.40;;;1.20;;
4957;SDS011;2494;51.872;9.688;2023-07-31T16:00:12;2.10;;;1.70;;
4957;SDS011;2494;51.872;9.688;2023-07-31T16:02:57;1.50;;;1.40;;
4957;SDS011;2494;51.872;9.688;2023-07-31T16:05:42;1.30;;;1.20;;
4957;SDS011;2494;51.872;9.688;2023-07-31T16:08:29;2.93;;;1.83;;
4957;SDS011;2494;51.872;9.688;2023-07-31T16:11:14;1.33;;;1.23;;
4957;SDS011;2494;51.872;9.688;2023-07-31T16:14:00;3.83;;;1.80;;
4957;SDS011;2494;51.872;9.688;2023-07-31T16:16:45;1.30;;;1.20;;
4957;SDS011;2494;51.872;9.688;2023-07-31T16:19:31;1.73;;;1.37;;
4957;SDS011;2494;51.872;9.688;2023-07-31T16:22:16;1.40;;;1.20;;
4957;SDS011;2494;51.872;9.688;2023-07-31T16:25:04;1.73;;;1.20;;
4957;SDS011;2494;51.872;9.688;2023-07-31T16:27:50;1.73;;;1.10;;
4957;SDS011;2494;51.872;9.688;2023-07-31T16:30:35;1.50;;;1.40;;
4957;SDS011;2494;51.872;9.688;2023-07-31T16:33:21;1.50;;;1.40;;
4957;SDS011;2494;51.872;9.688;2023-07-31T16:36:06;1.53;;;1.43;;
4957;SDS011;2494;51.872;9.688;2023-07-31T16:38:52;2.43;;;1.73;;
4957;SDS011;2494;51.872;9.688;2023-07-31T16:41:38;1.53;;;1.20;;
4957;SDS011;2494;51.872;9.688;2023-07-31T16:44:23;1.57;;;1.40;;
4957;SDS011;2494;51.872;9.688;2023-07-31T16:47:08;1.50;;;1.40;;
4957;SDS011;2494;51.872;9.688;2023-07-31T16:49:54;1.70;;;1.60;;
4957;SDS011;2494;51.872;9.688;2023-07-31T16:52:39;1.50;;;1.40;;
4957;SDS011;2494;51.872;9.688;2023-07-31T16:55:24;1.57;;;1.47;;
4957;SDS011;2494;51.872;9.688;2023-07-31T16:58:10;1.57;;;1.47;;
4957;SDS011;2494;51.872;9.688;2023-07-31T17:00:56;1.73;;;1.63;;
4957;SDS011;2494;51.872;9.688;2023-07-31T17:03:43;3.20;;;1.70;;
4957;SDS011;2494;51.872;9.688;2023-07-31T17:06:28;1.60;;;1.50;;
4957;SDS011;2494;51.872;9.688;2023-07-31T17:09:14;1.90;;;1.80;;
4957;SDS011;2494;51.872;9.688;2023-07-31T17:11:59;2.03;;;1.80;;
4957;SDS011;2494;51.872;9.688;2023-07-31T17:14:46;1.63;;;1.53;;